Time;durP1;ratioP1;P1;durP2;ratioP2;P2;SDS_P1;SDS_P2;PMS_P1;PMS_P2;Temp;Humidity;BMP_temperature;BMP_pressure;BME280_temperature;BME280_humidity;BME280_pressure;Samples;Min_cycle;Max_cycle;Signal;HPM_P1;HPM_P2
2024/03/24 00:09:12;;;;;;;31.67;12.83;;;;;;;6.79;100.00;99988.56;31582185;28;20056;-77
2024/03/24 00:24:13;;;;;;;44.73;20.07;;;;;;;6.49;100.00;99977.53;31595584;28;20040;-76
2024/03/24 00:39:14;;;;;;;56.17;24.92;;;;;;;6.73;100.00;99963.16;31584172;28;20054;-75
2024/03/24 00:54:15;;;;;;;24.27;10.35;;;;;;;6.59;100.00;99948.97;31580049;28;20122;-77
2024/03/24 01:09:16;;;;;;;25.38;11.70;;;;;;;6.32;100.00;99941.41;31582379;28;20060;-76
2024/03/24 01:24:17;;;;;;;20.00;11.03;;;;;;;5.92;100.00;99933.88;31570635;28;20051;-76
2024/03/24 01:39:18;;;;;;;24.85;10.70;;;;;;;5.82;100.00;99914.66;31564270;28;20062;-76
2024/03/24 01:54:21;;;;;;;26.43;10.70;;;;;;;6.10;100.00;99908.41;31576846;28;20052;-76
2024/03/24 02:09:22;;;;;;;22.57;10.23;;;;;;;5.71;100.00;99908.50;31564762;28;20056;-76
2024/03/24 02:24:23;;;;;;;23.83;10.00;;;;;;;5.74;100.00;99896.97;31568166;28;20056;-77
2024/03/24 02:39:24;;;;;;;28.20;11.47;;;;;;;4.77;100.00;99894.78;31583663;28;20117;-77
2024/03/24 02:54:25;;;;;;;21.93;9.07;;;;;;;4.41;100.00;99873.28;31572360;28;20056;-77
2024/03/24 03:09:26;;;;;;;20.50;9.45;;;;;;;4.16;100.00;99856.31;31592933;28;20056;-80
2024/03/24 03:24:28;;;;;;;18.70;5.80;;;;;;;4.01;100.00;99868.19;31575986;28;20515;-76
2024/03/24 03:39:28;;;;;;;28.97;7.30;;;;;;;3.58;100.00;99881.41;31603780;28;20520;-77
2024/03/24 03:54:31;;;;;;;24.80;8.38;;;;;;;3.58;100.00;99878.75;31576770;28;20471;-78
2024/03/24 04:09:32;;;;;;;36.70;9.47;;;;;;;3.74;100.00;99862.34;31619930;28;20394;-77
2024/03/24 04:24:33;;;;;;;17.33;8.00;;;;;;;3.37;100.00;99843.75;31603247;28;20052;-78
2024/03/24 04:39:34;;;;;;;17.80;5.28;;;;;;;3.30;100.00;99849.09;31554556;28;20139;-76
2024/03/24 04:54:35;;;;;;;18.93;8.50;;;;;;;3.61;100.00;99851.16;31597444;28;20055;-76
2024/03/24 05:09:36;;;;;;;16.63;7.00;;;;;;;3.68;100.00;99845.81;31601039;28;20052;-77
2024/03/24 05:24:37;;;;;;;32.10;7.17;;;;;;;3.91;100.00;99834.78;31603592;28;20059;-77
2024/03/24 05:39:38;;;;;;;24.27;8.57;;;;;;;4.32;100.00;99839.84;31560131;28;20045;-76
2024/03/24 05:54:39;;;;;;;27.70;8.50;;;;;;;4.44;100.00;99840.25;31564753;28;20136;-76
2024/03/24 06:09:40;;;;;;;23.80;7.28;;;;;;;5.20;100.00;99846.38;31582103;28;20130;-77
2024/03/24 06:24:41;;;;;;;19.57;7.87;;;;;;;5.21;100.00;99861.34;31549838;28;20068;-79
2024/03/24 06:39:42;;;;;;;32.87;11.00;;;;;;;6.24;100.00;99864.44;31571440;28;20052;-78
2024/03/24 06:54:43;;;;;;;28.05;13.02;;;;;;;6.56;100.00;99866.16;31579378;28;20131;-78
2024/03/24 07:09:44;;;;;;;20.07;10.23;;;;;;;6.14;100.00;99849.84;31583668;28;20076;-80
2024/03/24 07:24:45;;;;;;;25.83;9.83;;;;;;;8.66;100.00;99859.16;31579259;28;20056;-77
2024/03/24 07:39:46;;;;;;;20.03;9.07;;;;;;;10.01;100.00;99879.13;31581266;28;20085;-78
2024/03/24 07:54:47;;;;;;;21.65;10.73;;;;;;;11.49;100.00;99871.34;31581810;28;20062;-77
2024/03/24 08:09:48;;;;;;;21.90;9.52;;;;;;;12.87;100.00;99863.72;31565759;28;20447;-77
2024/03/24 08:24:49;;;;;;;16.97;9.17;;;;;;;13.46;100.00;99855.94;31599718;28;20056;-77
2024/03/24 08:39:49;;;;;;;16.97;9.30;;;;;;;14.17;100.00;99848.59;31531626;28;20059;-78
2024/03/24 08:54:50;;;;;;;18.27;8.50;;;;;;;14.70;91.52;99845.00;31582346;28;20312;-77
2024/03/24 09:09:51;;;;;;;38.88;14.02;;;;;;;15.15;82.68;99825.94;31616829;28;20063;-79
2024/03/24 09:24:52;;;;;;;15.37;7.67;;;;;;;15.45;80.79;99794.16;31575144;28;20493;-80
2024/03/24 09:39:53;;;;;;;13.70;7.33;;;;;;;16.53;68.14;99779.78;31574102;28;20465;-78
2024/03/24 09:54:55;;;;;;;16.43;6.73;;;;;;;17.54;61.17;99760.47;31585043;28;20305;-78
2024/03/24 10:09:56;;;;;;;15.80;7.07;;;;;;;18.27;55.96;99745.88;31568931;28;20301;-78
2024/03/24 10:24:57;;;;;;;13.48;7.05;;;;;;;19.22;54.23;99709.22;31574411;28;20066;-81
2024/03/24 10:39:58;;;;;;;14.77;7.40;;;;;;;19.34;50.97;99688.06;31546338;28;20135;-80
2024/03/24 10:55:00;;;;;;;12.68;5.47;;;;;;;19.31;49.00;99667.78;31653913;28;20688;-79
2024/03/24 11:10:02;;;;;;;10.88;5.25;;;;;;;19.51;46.32;99638.69;31610763;28;20405;-83
2024/03/24 11:25:05;;;;;;;12.60;5.78;;;;;;;20.22;44.53;99615.50;31587918;28;20059;-83
2024/03/24 11:40:10;;;;;;;8.48;4.53;;;;;;;21.84;40.06;99596.22;31630385;28;20055;-82
2024/03/24 11:55:14;;;;;;;8.57;5.13;;;;;;;21.75;40.19;99555.06;31583140;28;20048;-83
2024/03/24 12:10:15;;;;;;;8.73;4.77;;;;;;;18.98;41.55;99573.97;31613158;28;20061;-83
2024/03/24 12:25:16;;;;;;;10.63;5.03;;;;;;;17.12;43.65;99560.56;31585660;28;20068;-82
2024/03/24 12:40:21;;;;;;;7.17;3.43;;;;;;;17.94;43.56;99540.25;31587432;28;20056;-82
2024/03/24 12:55:22;;;;;;;7.87;4.60;;;;;;;17.61;44.00;99535.81;31609412;28;20063;-81
2024/03/24 13:10:26;;;;;;;10.38;4.95;;;;;;;17.01;45.38;99520.00;31589799;28;20074;-83
2024/03/24 13:25:30;;;;;;;10.27;4.67;;;;;;;17.61;44.09;99515.84;31590097;28;20078;-81
2024/03/24 13:40:43;;;;;;;8.37;4.40;;;;;;;17.69;43.83;99467.56;31575952;28;20052;-81
2024/03/24 13:55:44;;;;;;;7.93;4.63;;;;;;;17.12;45.51;99462.59;31574170;28;20054;-82
2024/03/24 14:10:45;;;;;;;9.23;4.40;;;;;;;16.24;46.90;99451.75;31580977;28;20189;-82
2024/03/24 14:25:46;;;;;;;7.87;3.90;;;;;;;16.18;46.59;99434.47;31627204;28;20784;-81
2024/03/24 14:41:21;;;;;;;12.30;5.57;;;;;;;16.17;46.38;99452.13;31562432;28;20095;-81
2024/03/24 14:56:24;;;;;;;6.93;3.43;;;;;;;15.83;46.22;99451.53;31571286;28;20100;-82
2024/03/24 15:11:25;;;;;;;8.50;3.90;;;;;;;15.61;46.79;99443.66;31563947;28;20066;-82
2024/03/24 15:26:26;;;;;;;6.13;3.50;;;;;;;15.45;47.44;99437.81;31581633;28;20045;-80
2024/03/24 15:41:28;;;;;;;5.57;3.13;;;;;;;15.27;48.00;99442.22;31610787;28;20138;-81
2024/03/24 15:56:43;;;;;;;7.10;2.88;;;;;;;15.28;52.41;99441.00;31572379;28;20048;-81
2024/03/24 16:11:46;;;;;;;;;;;;;;;14.74;67.41;99460.41;31563898;28;20056;-82
2024/03/24 16:26:47;;;;;;;4.33;2.23;;;;;;;13.91;79.88;99457.88;31565642;28;20053;-79
2024/03/24 16:41:48;;;;;;;5.63;2.00;;;;;;;13.58;85.82;99465.88;31580611;28;20063;-79
2024/03/24 16:56:49;;;;;;;5.17;2.27;;;;;;;13.29;94.26;99477.22;31566305;28;20080;-80
2024/03/24 17:11:50;;;;;;;5.47;2.10;;;;;;;12.77;99.96;99490.94;31568872;28;20063;-79
2024/03/24 17:26:52;;;;;;;5.17;2.47;;;;;;;12.92;98.41;99508.25;31569569;28;20052;-79
2024/03/24 17:41:53;;;;;;;4.23;2.30;;;;;;;12.60;100.00;99502.06;31575422;28;20048;-79
2024/03/24 17:56:54;;;;;;;8.18;2.40;;;;;;;12.42;100.00;99510.13;31601988;28;20044;-77
2024/03/24 18:11:55;;;;;;;5.90;2.67;;;;;;;12.14;100.00;99522.78;31596758;28;20060;-81
2024/03/24 18:26:57;;;;;;;5.77;2.63;;;;;;;11.43;100.00;99510.81;31588905;28;20417;-83
2024/03/24 18:41:57;;;;;;;4.83;2.33;;;;;;;11.53;100.00;99507.75;31603652;28;20056;-81
2024/03/24 18:56:58;;;;;;;6.32;2.95;;;;;;;10.97;100.00;99507.59;31565364;28;20050;-86
2024/03/24 19:11:59;;;;;;;5.43;2.70;;;;;;;11.06;100.00;99496.09;31577650;28;20052;-79
2024/03/24 19:27:00;;;;;;;8.97;3.43;;;;;;;10.67;100.00;99497.25;31588349;28;20353;-80
2024/03/24 19:42:01;;;;;;;7.00;3.30;;;;;;;10.07;100.00;99494.28;31568954;28;20048;-79
2024/03/24 19:57:02;;;;;;;5.00;2.20;;;;;;;10.28;100.00;99482.13;31647573;28;20220;-81
2024/03/24 20:12:05;;;;;;;6.53;2.80;;;;;;;10.22;100.00;99469.09;31589364;28;20485;-78
2024/03/24 20:27:06;;;;;;;20.27;10.97;;;;;;;9.63;100.00;99453.25;31595694;28;20052;-82
2024/03/24 20:42:07;;;;;;;7.13;2.53;;;;;;;9.86;100.00;99450.31;31576161;28;20052;-80
2024/03/24 20:57:08;;;;;;;13.83;7.17;;;;;;;9.72;100.00;99452.63;31583933;28;20105;-79
2024/03/24 21:12:09;;;;;;;8.60;3.77;;;;;;;9.58;100.00;99432.84;31576302;28;20507;-78
2024/03/24 21:27:11;;;;;;;5.53;2.40;;;;;;;9.50;100.00;99409.06;31584187;28;20641;-79
2024/03/24 21:42:13;;;;;;;5.90;2.33;;;;;;;9.21;100.00;99401.66;31662236;28;20055;-80
2024/03/24 21:57:14;;;;;;;7.17;2.63;;;;;;;9.48;100.00;99395.19;31584692;28;20052;-80
2024/03/24 22:12:15;;;;;;;3.50;1.73;;;;;;;9.31;100.00;99374.75;31562334;28;20101;-79
2024/03/24 22:27:20;;;;;;;4.87;1.90;;;;;;;9.17;100.00;99382.06;31558213;28;20055;-79
2024/03/24 22:42:20;;;;;;;6.20;2.00;;;;;;;8.76;100.00;99384.63;31555262;28;20044;-78
2024/03/24 22:57:21;;;;;;;5.72;2.85;;;;;;;8.32;100.00;99354.31;31601672;28;20510;-79
2024/03/24 23:12:22;;;;;;;3.83;2.30;;;;;;;8.00;100.00;99351.53;31611686;28;20056;-76
2024/03/24 23:27:24;;;;;;;4.47;2.17;;;;;;;7.94;100.00;99345.09;31577945;28;20056;-72
2024/03/24 23:42:25;;;;;;;6.33;1.90;;;;;;;7.78;100.00;99333.06;31584285;28;20373;-71
2024/03/24 23:57:26;;;;;;;7.43;2.53;;;;;;;7.46;100.00;99314.78;31569800;28;20048;-79
